createdAt,value
2018-08-25T00:00:02.142Z,663
2018-08-25T00:01:09.395Z,664
2018-08-25T00:02:16.826Z,666
2018-08-25T00:03:24.044Z,670
2018-08-25T00:04:31.482Z,670
2018-08-25T00:05:38.722Z,680
2018-08-25T00:06:45.964Z,669
2018-08-25T00:07:52.921Z,669
2018-08-25T00:09:00.157Z,665
2018-08-25T00:10:07.397Z,670
2018-08-25T00:11:14.863Z,670
2018-08-25T00:12:22.110Z,674
2018-08-25T00:13:29.567Z,676
2018-08-25T00:14:36.515Z,678
2018-08-25T00:15:43.959Z,679
2018-08-25T00:16:51.194Z,684
2018-08-25T00:17:58.432Z,684
2018-08-25T00:19:05.682Z,688
2018-08-25T00:20:12.901Z,690
2018-08-25T00:21:20.120Z,691
2018-08-25T00:22:27.370Z,702
2018-08-25T00:23:34.606Z,698
2018-08-25T00:24:41.854Z,701
2018-08-25T00:25:48.864Z,703
2018-08-25T00:26:56.081Z,701
2018-08-25T00:28:03.298Z,703
2018-08-25T00:29:10.485Z,702
2018-08-25T00:30:17.701Z,708
2018-08-25T00:31:25.139Z,710
2018-08-25T00:32:32.352Z,709
2018-08-25T00:33:39.580Z,720
2018-08-25T00:34:46.821Z,720
2018-08-25T00:35:53.787Z,725
2018-08-25T00:37:01.016Z,730
2018-08-25T00:38:07.978Z,730
2018-08-25T00:39:15.195Z,728
2018-08-25T00:40:22.654Z,727
2018-08-25T00:41:29.874Z,730
2018-08-25T00:42:37.323Z,731
2018-08-25T00:43:44.559Z,730
2018-08-25T00:44:51.791Z,735
2018-08-25T00:45:59.014Z,735
2018-08-25T00:47:06.250Z,737
2018-08-25T00:48:13.459Z,738
2018-08-25T00:49:20.705Z,742
2018-08-25T00:50:27.917Z,744
2018-08-25T00:51:35.161Z,746
2018-08-25T00:52:42.377Z,746
2018-08-25T00:53:49.625Z,751
2018-08-25T00:54:56.842Z,751
2018-08-25T00:56:04.072Z,751
2018-08-25T00:57:11.294Z,757
2018-08-25T00:58:18.743Z,757
2018-08-25T00:59:26.495Z,759
2018-08-25T01:00:33.794Z,763
2018-08-25T01:01:40.755Z,762
2018-08-25T01:02:47.989Z,764
2018-08-25T01:03:55.213Z,765
2018-08-25T01:05:02.168Z,767
2018-08-25T01:06:09.109Z,768
2018-08-25T01:07:16.574Z,769
2018-08-25T01:08:23.799Z,770
2018-08-25T01:09:30.957Z,771
2018-08-25T01:10:38.176Z,773
2018-08-25T01:11:45.441Z,774
2018-08-25T01:12:52.668Z,774
2018-08-25T01:13:59.893Z,776
2018-08-25T01:15:07.126Z,781
2018-08-25T01:16:14.361Z,782
2018-08-25T01:17:21.584Z,783
2018-08-25T01:18:29.036Z,784
2018-08-25T01:19:36.248Z,783
2018-08-25T01:20:43.700Z,781
2018-08-25T01:21:50.935Z,781
2018-08-25T01:22:58.189Z,783
2018-08-25T01:24:05.408Z,783
2018-08-25T01:25:12.842Z,784
2018-08-25T01:26:20.064Z,778
2018-08-25T01:27:27.510Z,777
2018-08-25T01:28:34.746Z,775
2018-08-25T01:29:41.977Z,774
2018-08-25T01:30:49.221Z,774
2018-08-25T01:31:56.438Z,773
2018-08-25T01:33:03.669Z,774
2018-08-25T01:34:11.120Z,775
2018-08-25T01:35:18.336Z,776
2018-08-25T01:36:25.513Z,778
2018-08-25T01:37:32.729Z,776
2018-08-25T01:38:40.188Z,779
2018-08-25T01:39:47.426Z,779
2018-08-25T01:40:54.390Z,779
2018-08-25T01:42:01.622Z,779
2018-08-25T01:43:08.876Z,780
2018-08-25T01:44:16.122Z,781
2018-08-25T01:45:23.552Z,782
2018-08-25T01:46:30.786Z,782
2018-08-25T01:47:37.962Z,781
2018-08-25T01:48:44.903Z,781
2018-08-25T01:49:52.064Z,783
2018-08-25T01:50:59.007Z,785
2018-08-25T01:52:06.219Z,783
2018-08-25T01:53:13.450Z,783
2018-08-25T01:54:20.412Z,786
2018-08-25T01:55:27.628Z,787
2018-08-25T01:56:34.858Z,788
2018-08-25T01:57:42.094Z,789
2018-08-25T01:58:49.547Z,788
2018-08-25T01:59:56.780Z,792
2018-08-25T02:01:04.027Z,793
2018-08-25T02:02:11.257Z,795
2018-08-25T02:03:18.494Z,794
2018-08-25T02:04:25.453Z,796
2018-08-25T02:05:32.699Z,797
2018-08-25T02:06:39.674Z,798
2018-08-25T02:07:46.885Z,800
2018-08-25T02:08:54.130Z,799
2018-08-25T02:10:01.368Z,800
2018-08-25T02:11:08.602Z,799
2018-08-25T02:12:15.561Z,798
2018-08-25T02:13:22.803Z,801
2018-08-25T02:14:30.030Z,802
2018-08-25T02:15:37.271Z,803
2018-08-25T02:16:44.510Z,817
2018-08-25T02:17:51.451Z,824
2018-08-25T02:18:58.905Z,825
2018-08-25T02:20:05.871Z,828
2018-08-25T02:21:13.045Z,827
2018-08-25T02:22:20.008Z,826
2018-08-25T02:23:27.241Z,830
2018-08-25T02:24:34.455Z,832
2018-08-25T02:25:41.888Z,833
2018-08-25T02:26:49.110Z,835
2018-08-25T02:27:56.049Z,833
2018-08-25T02:29:03.016Z,834
2018-08-25T02:30:10.268Z,838
2018-08-25T02:31:17.503Z,837
2018-08-25T02:32:24.755Z,836
2018-08-25T02:33:32.038Z,834
2018-08-25T02:34:39.016Z,837
2018-08-25T02:35:46.253Z,828
2018-08-25T02:36:53.694Z,827
2018-08-25T02:38:00.919Z,827
2018-08-25T02:39:08.411Z,826
2018-08-25T02:40:15.642Z,823
2018-08-25T02:41:22.872Z,829
2018-08-25T02:42:30.111Z,828
2018-08-25T02:43:37.077Z,830
2018-08-25T02:44:44.302Z,832
2018-08-25T02:45:51.558Z,834
2018-08-25T02:46:58.775Z,835
2018-08-25T02:48:06.205Z,834
2018-08-25T02:49:13.423Z,837
2018-08-25T02:50:20.653Z,839
2018-08-25T02:51:27.609Z,841
2018-08-25T02:52:34.855Z,846
2018-08-25T02:53:42.075Z,849
2018-08-25T02:54:49.306Z,848
2018-08-25T02:55:56.517Z,848
2018-08-25T02:57:03.970Z,848
2018-08-25T02:58:11.194Z,850
2018-08-25T02:59:18.618Z,849
2018-08-25T03:00:25.842Z,850
2018-08-25T03:01:33.074Z,850
2018-08-25T03:02:40.308Z,851
2018-08-25T03:03:47.558Z,852
2018-08-25T03:04:54.795Z,853
2018-08-25T03:06:02.022Z,852
2018-08-25T03:07:09.257Z,853
2018-08-25T03:08:16.489Z,852
2018-08-25T03:09:23.724Z,854
2018-08-25T03:10:30.953Z,854
2018-08-25T03:11:38.183Z,856
2018-08-25T03:12:45.642Z,854
2018-08-25T03:13:52.937Z,856
2018-08-25T03:15:00.487Z,856
2018-08-25T03:16:07.698Z,856
2018-08-25T03:17:15.145Z,858
2018-08-25T03:18:22.104Z,857
2018-08-25T03:19:29.334Z,856
2018-08-25T03:20:35.724Z,857
2018-08-25T03:21:42.958Z,857
2018-08-25T03:22:50.204Z,855
2018-08-25T03:23:57.652Z,857
2018-08-25T03:25:04.868Z,857
2018-08-25T03:26:12.303Z,859
2018-08-25T03:27:19.521Z,859
2018-08-25T03:28:26.958Z,861
2018-08-25T03:29:34.191Z,863
2018-08-25T03:30:41.402Z,862
2018-08-25T03:31:48.645Z,864
2018-08-25T03:32:55.890Z,865
2018-08-25T03:34:02.855Z,863
2018-08-25T03:35:10.345Z,867
2018-08-25T03:36:17.037Z,866
2018-08-25T03:37:24.198Z,867
2018-08-25T03:38:31.408Z,867
2018-08-25T03:39:38.662Z,868
2018-08-25T03:40:45.882Z,869
2018-08-25T03:41:53.329Z,870
2018-08-25T03:43:00.340Z,871
2018-08-25T03:44:07.786Z,868
2018-08-25T03:45:15.010Z,870
2018-08-25T03:46:21.971Z,870
2018-08-25T03:47:29.201Z,872
2018-08-25T03:48:36.437Z,871
2018-08-25T03:49:43.666Z,871
2018-08-25T03:50:50.613Z,871
2018-08-25T03:51:57.824Z,872
2018-08-25T03:53:05.272Z,872
2018-08-25T03:54:12.485Z,873
2018-08-25T03:55:19.960Z,871
2018-08-25T03:56:27.239Z,874
2018-08-25T03:57:34.468Z,876
2018-08-25T03:58:41.709Z,874
2018-08-25T03:59:48.951Z,875
2018-08-25T04:00:56.194Z,875
2018-08-25T04:02:03.155Z,876
2018-08-25T04:03:10.390Z,877
2018-08-25T04:04:17.827Z,875
2018-08-25T04:05:25.052Z,878
2018-08-25T04:06:32.480Z,878
2018-08-25T04:07:39.415Z,878
2018-08-25T04:08:46.644Z,878
2018-08-25T04:09:53.929Z,881
2018-08-25T04:11:01.146Z,878
2018-08-25T04:12:08.361Z,880
2018-08-25T04:13:15.582Z,882
2018-08-25T04:14:22.813Z,883
2018-08-25T04:15:30.045Z,883
2018-08-25T04:16:37.273Z,884
2018-08-25T04:17:44.496Z,884
2018-08-25T04:18:51.714Z,884
2018-08-25T04:19:58.891Z,887
2018-08-25T04:21:06.108Z,885
2018-08-25T04:22:13.719Z,886
2018-08-25T04:23:21.063Z,885
2018-08-25T04:24:28.279Z,886
2018-08-25T04:25:35.234Z,886
2018-08-25T04:26:42.449Z,885
2018-08-25T04:27:49.685Z,886
2018-08-25T04:28:56.937Z,886
2018-08-25T04:30:04.150Z,886
2018-08-25T04:31:11.587Z,887
2018-08-25T04:32:18.804Z,886
2018-08-25T04:33:26.260Z,886
2018-08-25T04:34:33.608Z,888
2018-08-25T04:35:40.835Z,886
2018-08-25T04:36:48.168Z,886
2018-08-25T04:37:55.418Z,884
2018-08-25T04:39:02.648Z,885
2018-08-25T04:40:09.884Z,886
2018-08-25T04:41:17.369Z,885
2018-08-25T04:42:24.730Z,885
2018-08-25T04:43:31.946Z,886
2018-08-25T04:44:39.190Z,886
2018-08-25T04:45:46.403Z,886
2018-08-25T04:46:53.580Z,889
2018-08-25T04:48:00.796Z,888
2018-08-25T04:49:08.251Z,886
2018-08-25T04:50:15.479Z,889
2018-08-25T04:51:22.654Z,887
2018-08-25T04:52:29.867Z,887
2018-08-25T04:53:37.103Z,888
2018-08-25T04:54:44.321Z,888
2018-08-25T04:55:51.536Z,888
2018-08-25T04:56:58.756Z,888
2018-08-25T04:58:05.968Z,888
2018-08-25T04:59:13.186Z,889
2018-08-25T05:00:20.634Z,890
2018-08-25T05:01:27.580Z,890
2018-08-25T05:02:35.014Z,890
2018-08-25T05:03:42.232Z,890
2018-08-25T05:04:49.182Z,889
2018-08-25T05:05:56.421Z,890
2018-08-25T05:07:03.652Z,891
2018-08-25T05:08:10.870Z,893
2018-08-25T05:09:18.086Z,891
2018-08-25T05:10:25.315Z,891
2018-08-25T05:11:32.566Z,891
2018-08-25T05:12:39.797Z,891
2018-08-25T05:13:47.014Z,891
2018-08-25T05:14:54.224Z,892
2018-08-25T05:16:01.672Z,893
2018-08-25T05:17:08.890Z,891
2018-08-25T05:18:16.066Z,891
2018-08-25T05:19:22.725Z,892
2018-08-25T05:20:29.661Z,891
2018-08-25T05:21:36.897Z,892
2018-08-25T05:22:44.133Z,894
2018-08-25T05:23:51.366Z,894
2018-08-25T05:24:58.595Z,894
2018-08-25T05:26:05.810Z,895
2018-08-25T05:27:12.985Z,892
2018-08-25T05:28:20.199Z,894
2018-08-25T05:29:27.648Z,894
2018-08-25T05:30:34.871Z,896
2018-08-25T05:31:42.084Z,893
2018-08-25T05:32:49.313Z,894
2018-08-25T05:33:56.526Z,895
2018-08-25T05:35:03.761Z,895
2018-08-25T05:36:10.447Z,895
2018-08-25T05:37:17.663Z,898
2018-08-25T05:38:24.842Z,899
2018-08-25T05:39:31.783Z,897
2018-08-25T05:40:39.221Z,898
2018-08-25T05:41:46.438Z,894
2018-08-25T05:42:53.409Z,898
2018-08-25T05:44:00.352Z,896
2018-08-25T05:45:07.781Z,898
2018-08-25T05:46:15.015Z,898
2018-08-25T05:47:22.195Z,898
2018-08-25T05:48:29.430Z,895
2018-08-25T05:49:36.648Z,895
2018-08-25T05:50:43.890Z,896
2018-08-25T05:51:51.134Z,895
2018-08-25T05:52:58.368Z,898
2018-08-25T05:54:05.584Z,895
2018-08-25T05:55:12.808Z,896
2018-08-25T05:56:19.984Z,896
2018-08-25T05:57:27.207Z,899
2018-08-25T05:58:34.758Z,897
2018-08-25T05:59:41.720Z,901
2018-08-25T06:00:48.953Z,899
2018-08-25T06:01:56.186Z,900
2018-08-25T06:03:03.419Z,903
2018-08-25T06:04:10.643Z,900
2018-08-25T06:05:18.076Z,901
2018-08-25T06:06:25.385Z,902
2018-08-25T06:07:32.877Z,903
2018-08-25T06:08:40.101Z,907
2018-08-25T06:09:47.541Z,906
2018-08-25T06:10:54.793Z,906
2018-08-25T06:12:02.031Z,905
2018-08-25T06:13:09.267Z,908
2018-08-25T06:14:16.228Z,909
2018-08-25T06:15:38.124Z,909
2018-08-25T06:16:45.357Z,908
2018-08-25T06:17:52.595Z,910
2018-08-25T06:18:59.805Z,910
2018-08-25T06:20:07.074Z,910
2018-08-25T06:21:14.320Z,910
2018-08-25T06:22:21.278Z,908
2018-08-25T06:23:28.457Z,912
2018-08-25T06:24:35.709Z,910
2018-08-25T06:25:43.139Z,910
2018-08-25T06:26:50.361Z,911
2018-08-25T06:27:57.608Z,911
2018-08-25T06:29:04.566Z,909
2018-08-25T06:30:11.999Z,911
2018-08-25T06:31:19.421Z,911
2018-08-25T06:32:26.384Z,912
2018-08-25T06:33:33.611Z,912
2018-08-25T06:34:41.057Z,912
2018-08-25T06:35:48.294Z,912
2018-08-25T06:36:55.743Z,912
2018-08-25T06:38:03.004Z,909
2018-08-25T06:39:10.247Z,911
2018-08-25T06:40:17.479Z,913
2018-08-25T06:41:24.936Z,912
2018-08-25T06:42:32.310Z,912
2018-08-25T06:43:39.815Z,913
2018-08-25T06:44:47.209Z,915
2018-08-25T06:45:54.427Z,912
2018-08-25T06:47:01.640Z,915
2018-08-25T06:48:08.866Z,915
2018-08-25T06:49:16.075Z,915
2018-08-25T06:50:23.291Z,915
2018-08-25T06:51:30.521Z,915
2018-08-25T06:52:37.968Z,914
2018-08-25T06:53:45.193Z,888
2018-08-25T06:54:52.420Z,907
2018-08-25T06:55:59.634Z,916
2018-08-25T06:57:06.864Z,914
2018-08-25T06:58:13.811Z,918
2018-08-25T06:59:21.173Z,918
2018-08-25T07:00:28.432Z,915
2018-08-25T07:01:35.639Z,916
2018-08-25T07:02:42.602Z,915
2018-08-25T07:03:49.816Z,915
2018-08-25T07:04:56.762Z,916
2018-08-25T07:06:04.376Z,916
2018-08-25T07:07:11.502Z,915
2018-08-25T07:08:18.727Z,917
2018-08-25T07:09:25.951Z,915
2018-08-25T07:10:33.226Z,915
2018-08-25T07:11:40.483Z,915
2018-08-25T07:12:47.817Z,915
2018-08-25T07:13:55.106Z,914
2018-08-25T07:15:02.067Z,914
2018-08-25T07:16:09.287Z,917
2018-08-25T07:17:16.756Z,913
2018-08-25T07:18:23.428Z,915
2018-08-25T07:19:30.597Z,915
2018-08-25T07:20:37.814Z,914
2018-08-25T07:21:45.031Z,918
2018-08-25T07:22:52.262Z,918
2018-08-25T07:23:59.199Z,917
2018-08-25T07:25:06.161Z,916
2018-08-25T07:26:13.565Z,917
2018-08-25T07:27:20.726Z,917
2018-08-25T07:28:28.185Z,918
2018-08-25T07:29:35.411Z,918
2018-08-25T07:30:42.667Z,917
2018-08-25T07:31:49.886Z,914
2018-08-25T07:32:57.138Z,916
2018-08-25T07:34:04.386Z,916
2018-08-25T07:35:11.619Z,915
2018-08-25T07:36:18.833Z,915
2018-08-25T07:37:26.050Z,916
2018-08-25T07:38:33.004Z,914
2018-08-25T07:39:40.243Z,918
2018-08-25T07:40:47.211Z,916
2018-08-25T07:41:54.437Z,916
2018-08-25T07:43:01.660Z,916
2018-08-25T07:44:09.124Z,916
2018-08-25T07:45:16.561Z,917
2018-08-25T07:46:24.064Z,917
2018-08-25T07:47:31.286Z,918
2018-08-25T07:48:38.658Z,918
2018-08-25T07:49:46.007Z,917
2018-08-25T07:50:53.232Z,917
2018-08-25T07:52:00.473Z,917
2018-08-25T07:53:07.693Z,917
2018-08-25T07:54:14.934Z,917
2018-08-25T07:55:22.398Z,917
2018-08-25T07:56:29.623Z,917
2018-08-25T07:57:36.585Z,917
2018-08-25T07:58:43.538Z,917
2018-08-25T07:59:50.752Z,919
2018-08-25T08:00:57.976Z,918
2018-08-25T08:02:05.224Z,917
2018-08-25T08:03:12.168Z,917
2018-08-25T08:04:19.401Z,917
2018-08-25T08:05:26.665Z,918
2018-08-25T08:06:33.971Z,918
2018-08-25T08:07:41.192Z,918
2018-08-25T08:08:48.450Z,918
2018-08-25T08:09:55.404Z,918
2018-08-25T08:11:02.635Z,915
2018-08-25T08:12:09.996Z,919
2018-08-25T08:13:17.296Z,916
2018-08-25T08:14:24.507Z,917
2018-08-25T08:15:31.724Z,916
2018-08-25T08:16:38.684Z,917
2018-08-25T08:17:45.626Z,920
2018-08-25T08:18:52.855Z,921
2018-08-25T08:20:00.080Z,920
2018-08-25T08:21:07.315Z,920
2018-08-25T08:22:14.305Z,920
2018-08-25T08:23:21.524Z,921
2018-08-25T08:24:28.765Z,922
2018-08-25T08:25:35.994Z,919
2018-08-25T08:26:43.182Z,921
2018-08-25T08:27:50.413Z,921
2018-08-25T08:28:57.655Z,922
2018-08-25T08:30:04.870Z,921
2018-08-25T08:31:12.322Z,923
2018-08-25T08:32:19.556Z,919
2018-08-25T08:33:27.015Z,923
2018-08-25T08:34:34.235Z,923
2018-08-25T08:35:41.690Z,922
2018-08-25T08:36:48.910Z,918
2018-08-25T08:37:55.872Z,921
2018-08-25T08:39:03.107Z,921
2018-08-25T08:40:10.344Z,921
2018-08-25T08:41:17.589Z,896
2018-08-25T08:42:25.363Z,863
2018-08-25T08:43:32.792Z,798
2018-08-25T08:44:40.248Z,726
2018-08-25T08:45:47.198Z,676
2018-08-25T08:46:54.379Z,656
2018-08-25T08:48:01.637Z,695
2018-08-25T08:49:08.866Z,681
2018-08-25T08:50:16.157Z,658
2018-08-25T08:51:23.494Z,512
2018-08-25T08:52:30.725Z,494
2018-08-25T08:53:37.689Z,466
2018-08-25T08:54:44.908Z,461
2018-08-25T08:55:52.322Z,447
2018-08-25T08:56:59.547Z,442
2018-08-25T08:58:06.870Z,436
2018-08-25T08:59:14.096Z,435
2018-08-25T09:00:21.330Z,430
2018-08-25T09:01:28.539Z,433
2018-08-25T09:02:35.503Z,431
2018-08-25T09:03:42.723Z,430
2018-08-25T09:04:49.981Z,416
2018-08-25T09:05:56.943Z,418
2018-08-25T09:07:04.186Z,416
2018-08-25T09:08:11.418Z,405
2018-08-25T09:09:18.379Z,407
2018-08-25T09:10:25.598Z,406
2018-08-25T09:11:33.584Z,400
2018-08-25T09:12:40.803Z,397
2018-08-25T09:13:47.991Z,391
2018-08-25T09:14:55.212Z,389
2018-08-25T09:16:02.442Z,397
2018-08-25T09:17:09.397Z,396
2018-08-25T09:18:16.820Z,400
2018-08-25T09:19:24.275Z,394
2018-08-25T09:20:31.606Z,406
2018-08-25T09:21:38.841Z,396
2018-08-25T09:22:46.310Z,405
2018-08-25T09:23:53.527Z,399
2018-08-25T09:25:00.983Z,396
2018-08-25T09:26:08.203Z,393
2018-08-25T09:27:15.535Z,391
2018-08-25T09:28:22.760Z,382
2018-08-25T09:29:29.997Z,379
2018-08-25T09:30:37.225Z,382
2018-08-25T09:31:44.440Z,385
2018-08-25T09:32:51.676Z,397
2018-08-25T09:34:13.565Z,412
2018-08-25T09:35:20.796Z,409
2018-08-25T09:36:28.715Z,413
2018-08-25T09:37:36.316Z,416
2018-08-25T09:38:43.775Z,424
2018-08-25T09:39:50.992Z,435
2018-08-25T09:40:58.211Z,456
2018-08-25T09:42:05.425Z,453
2018-08-25T09:43:12.369Z,459
2018-08-25T09:44:19.588Z,505
2018-08-25T09:45:26.826Z,479
2018-08-25T09:46:34.061Z,533
2018-08-25T09:47:41.309Z,485
2018-08-25T09:48:48.553Z,519
2018-08-25T09:49:55.788Z,535
2018-08-25T09:51:03.001Z,503
2018-08-25T09:52:10.222Z,512
2018-08-25T09:53:17.650Z,536
2018-08-25T09:54:24.862Z,495
2018-08-25T09:55:32.122Z,466
2018-08-25T09:56:39.062Z,466
2018-08-25T09:57:46.288Z,486
2018-08-25T09:58:53.593Z,517
2018-08-25T10:00:00.819Z,468
2018-08-25T10:01:08.053Z,510
2018-08-25T10:02:15.277Z,549
2018-08-25T10:03:22.494Z,527
2018-08-25T10:04:29.716Z,521
2018-08-25T10:05:36.950Z,517
2018-08-25T10:06:44.211Z,511
2018-08-25T10:07:51.185Z,497
2018-08-25T10:08:58.409Z,497
2018-08-25T10:10:05.348Z,501
2018-08-25T10:11:12.561Z,483
2018-08-25T10:12:19.775Z,481
2018-08-25T10:13:26.992Z,477
2018-08-25T10:14:33.956Z,478
2018-08-25T10:15:41.175Z,483
2018-08-25T10:16:48.876Z,487
2018-08-25T10:17:55.920Z,490
2018-08-25T10:19:03.171Z,506
2018-08-25T10:20:10.391Z,564
2018-08-25T10:21:17.609Z,535
2018-08-25T10:22:24.863Z,527
2018-08-25T10:23:32.340Z,535
2018-08-25T10:24:39.714Z,523
2018-08-25T10:25:46.667Z,526
2018-08-25T10:26:53.915Z,529
2018-08-25T10:28:01.149Z,531
2018-08-25T10:29:08.755Z,530
2018-08-25T10:30:16.458Z,557
2018-08-25T10:31:23.674Z,508
2018-08-25T10:32:30.905Z,499
2018-08-25T10:33:38.140Z,507
2018-08-25T10:34:45.381Z,535
2018-08-25T10:35:52.914Z,519
2018-08-25T10:37:00.134Z,513
2018-08-25T10:38:07.361Z,503
2018-08-25T10:39:14.578Z,496
2018-08-25T10:40:21.822Z,497
2018-08-25T10:41:29.098Z,517
2018-08-25T10:42:36.316Z,506
2018-08-25T10:43:43.491Z,499
2018-08-25T10:44:50.712Z,499
2018-08-25T10:45:57.933Z,503
2018-08-25T10:47:05.159Z,503
2018-08-25T10:48:12.795Z,503
2018-08-25T10:49:19.891Z,506
2018-08-25T10:50:26.857Z,506
2018-08-25T10:51:34.092Z,506
2018-08-25T10:52:41.329Z,511
2018-08-25T10:53:48.318Z,523
2018-08-25T10:54:55.807Z,520
2018-08-25T10:56:03.014Z,524
2018-08-25T10:57:10.451Z,517
2018-08-25T10:58:17.691Z,506
2018-08-25T10:59:24.920Z,504
2018-08-25T11:00:32.127Z,505
2018-08-25T11:01:39.530Z,506
2018-08-25T11:02:46.507Z,509
2018-08-25T11:03:53.727Z,547
2018-08-25T11:05:00.972Z,524
2018-08-25T11:06:08.435Z,518
2018-08-25T11:07:15.660Z,516
2018-08-25T11:08:23.095Z,519
2018-08-25T11:09:30.330Z,521
2018-08-25T11:10:37.567Z,515
2018-08-25T11:11:44.784Z,516
2018-08-25T11:12:52.036Z,515
2018-08-25T11:13:59.271Z,513
2018-08-25T11:15:06.486Z,513
2018-08-25T11:16:13.728Z,516
2018-08-25T11:17:35.595Z,514
2018-08-25T11:18:42.886Z,515
2018-08-25T11:19:50.105Z,513
2018-08-25T11:20:57.322Z,521
2018-08-25T11:22:04.560Z,512
2018-08-25T11:23:11.797Z,510
2018-08-25T11:24:19.123Z,510
2018-08-25T11:25:26.357Z,511
2018-08-25T11:26:33.605Z,510
2018-08-25T11:27:40.828Z,509
2018-08-25T11:28:48.082Z,513
2018-08-25T11:29:55.328Z,526
2018-08-25T11:31:02.550Z,546
2018-08-25T11:32:09.507Z,534
2018-08-25T11:33:16.966Z,528
2018-08-25T11:34:24.193Z,527
2018-08-25T11:35:31.406Z,530
2018-08-25T11:36:38.640Z,597
2018-08-25T11:37:46.433Z,543
2018-08-25T11:38:53.562Z,539
2018-08-25T11:40:00.810Z,539
2018-08-25T11:41:08.029Z,534
2018-08-25T11:42:15.480Z,523
2018-08-25T11:43:22.711Z,523
2018-08-25T11:44:29.949Z,523
2018-08-25T11:45:37.187Z,521
2018-08-25T11:46:44.429Z,521
2018-08-25T11:47:51.386Z,527
2018-08-25T11:48:58.644Z,529
2018-08-25T11:50:05.877Z,533
2018-08-25T11:51:13.130Z,550
2018-08-25T11:52:20.367Z,549
2018-08-25T11:53:27.610Z,553
2018-08-25T11:54:34.839Z,554
2018-08-25T11:55:42.290Z,546
2018-08-25T11:56:49.510Z,555
2018-08-25T11:57:56.748Z,556
2018-08-25T11:59:03.986Z,557
2018-08-25T12:00:11.222Z,557
2018-08-25T12:01:18.454Z,577
2018-08-25T12:02:28.891Z,563
2018-08-25T12:03:36.421Z,591
2018-08-25T12:04:43.859Z,581
2018-08-25T12:05:51.090Z,590
2018-08-25T12:06:58.327Z,571
2018-08-25T12:08:05.551Z,580
2018-08-25T12:09:12.992Z,573
2018-08-25T12:10:20.213Z,566
2018-08-25T12:11:27.461Z,562
2018-08-25T12:12:34.696Z,564
2018-08-25T12:13:41.930Z,563
2018-08-25T12:14:49.167Z,566
2018-08-25T12:15:56.390Z,567
2018-08-25T12:17:03.073Z,573
2018-08-25T12:18:10.308Z,578
2018-08-25T12:19:17.546Z,582
2018-08-25T12:20:24.788Z,578
2018-08-25T12:21:32.034Z,580
2018-08-25T12:22:39.041Z,582
2018-08-25T12:23:46.250Z,580
2018-08-25T12:24:53.473Z,574
2018-08-25T12:26:00.708Z,585
2018-08-25T12:27:07.927Z,589
2018-08-25T12:28:15.163Z,592
2018-08-25T12:29:22.401Z,586
2018-08-25T12:30:29.793Z,588
2018-08-25T12:31:37.053Z,586
2018-08-25T12:32:44.273Z,587
2018-08-25T12:33:51.727Z,588
2018-08-25T12:34:58.964Z,587
2018-08-25T12:36:06.404Z,587
2018-08-25T12:37:13.634Z,585
2018-08-25T12:38:20.851Z,585
2018-08-25T12:39:28.315Z,583
2018-08-25T12:40:35.646Z,581
2018-08-25T12:41:42.611Z,583
2018-08-25T12:42:49.578Z,589
2018-08-25T12:43:56.799Z,581
2018-08-25T12:45:04.381Z,586
2018-08-25T12:46:11.763Z,591
2018-08-25T12:47:19.003Z,597
2018-08-25T12:48:26.218Z,592
2018-08-25T12:49:33.449Z,577
2018-08-25T12:50:40.392Z,579
2018-08-25T12:51:48.139Z,572
2018-08-25T12:52:55.509Z,567
2018-08-25T12:54:02.749Z,564
2018-08-25T12:55:10.042Z,569
2018-08-25T12:56:17.310Z,567
2018-08-25T12:57:24.524Z,559
2018-08-25T12:58:31.774Z,545
2018-08-25T12:59:38.998Z,540
2018-08-25T13:00:46.460Z,541
2018-08-25T13:01:53.680Z,548
2018-08-25T13:03:01.120Z,551
2018-08-25T13:04:08.340Z,620
2018-08-25T13:05:15.797Z,642
2018-08-25T13:06:23.050Z,539
2018-08-25T13:07:30.452Z,543
2018-08-25T13:08:37.164Z,540
2018-08-25T13:09:44.397Z,546
2018-08-25T13:10:51.637Z,547
2018-08-25T13:11:59.100Z,547
2018-08-25T13:13:06.635Z,546
2018-08-25T13:14:14.112Z,541
2018-08-25T13:15:21.332Z,538
2018-08-25T13:16:28.779Z,538
2018-08-25T13:17:35.475Z,544
2018-08-25T13:18:42.823Z,530
2018-08-25T13:19:50.063Z,525
2018-08-25T13:20:57.296Z,521
2018-08-25T13:22:04.701Z,519
2018-08-25T13:23:11.923Z,526
2018-08-25T13:24:18.892Z,533
2018-08-25T13:25:26.125Z,541
2018-08-25T13:26:33.349Z,544
2018-08-25T13:27:40.581Z,548
2018-08-25T13:28:47.812Z,550
2018-08-25T13:29:54.987Z,551
2018-08-25T13:31:02.289Z,551
2018-08-25T13:32:10.180Z,552
2018-08-25T13:33:17.401Z,555
2018-08-25T13:34:24.362Z,552
2018-08-25T13:35:31.586Z,548
2018-08-25T13:36:38.830Z,549
2018-08-25T13:37:46.055Z,549
2018-08-25T13:38:53.292Z,552
2018-08-25T13:40:00.692Z,548
2018-08-25T13:41:08.359Z,546
2018-08-25T13:42:15.597Z,543
2018-08-25T13:43:22.818Z,542
2018-08-25T13:44:30.038Z,547
2018-08-25T13:45:37.282Z,549
2018-08-25T13:46:44.527Z,550
2018-08-25T13:47:51.765Z,551
2018-08-25T13:48:58.984Z,552
2018-08-25T13:50:05.936Z,552
2018-08-25T13:51:13.187Z,554
2018-08-25T13:52:20.397Z,557
2018-08-25T13:53:27.629Z,557
2018-08-25T13:54:34.870Z,559
2018-08-25T13:55:42.096Z,558
2018-08-25T13:56:49.549Z,559
2018-08-25T13:57:56.771Z,560
2018-08-25T13:59:04.228Z,560
2018-08-25T14:00:11.451Z,560
2018-08-25T14:01:18.691Z,561
2018-08-25T14:02:25.937Z,561
2018-08-25T14:03:33.173Z,561
2018-08-25T14:04:40.407Z,560
2018-08-25T14:05:47.652Z,560
2018-08-25T14:06:54.618Z,560
2018-08-25T14:08:01.934Z,560
2018-08-25T14:09:09.292Z,559
2018-08-25T14:10:16.542Z,558
2018-08-25T14:11:23.783Z,557
2018-08-25T14:12:31.031Z,557
2018-08-25T14:13:38.263Z,558
2018-08-25T14:14:45.713Z,559
2018-08-25T14:15:53.084Z,558
2018-08-25T14:17:00.357Z,557
2018-08-25T14:18:07.386Z,557
2018-08-25T14:19:14.609Z,555
2018-08-25T14:20:21.849Z,556
2018-08-25T14:21:29.082Z,555
2018-08-25T14:22:36.315Z,556
2018-08-25T14:23:43.772Z,555
2018-08-25T14:24:50.996Z,553
2018-08-25T14:25:58.453Z,539
2018-08-25T14:27:05.674Z,528
2018-08-25T14:28:12.896Z,555
2018-08-25T14:29:20.130Z,548
2018-08-25T14:30:27.367Z,546
2018-08-25T14:31:34.599Z,550
2018-08-25T14:32:41.839Z,543
2018-08-25T14:33:49.060Z,551
2018-08-25T14:34:56.308Z,565
2018-08-25T14:36:03.542Z,577
2018-08-25T14:37:10.794Z,575
2018-08-25T14:38:18.018Z,582
2018-08-25T14:39:25.239Z,576
2018-08-25T14:40:32.207Z,568
2018-08-25T14:41:39.759Z,579
2018-08-25T14:42:47.081Z,576
2018-08-25T14:43:54.356Z,572
2018-08-25T14:45:01.289Z,565
2018-08-25T14:46:08.512Z,570
2018-08-25T14:47:15.844Z,567
2018-08-25T14:48:23.318Z,566
2018-08-25T14:49:30.580Z,574
2018-08-25T14:50:38.028Z,575
2018-08-25T14:51:45.259Z,584
2018-08-25T14:52:52.450Z,584
2018-08-25T14:53:59.677Z,582
2018-08-25T14:55:06.938Z,580
2018-08-25T14:56:14.181Z,583
2018-08-25T14:57:21.141Z,580
2018-08-25T14:58:28.377Z,586
2018-08-25T14:59:35.620Z,581
2018-08-25T15:00:42.923Z,581
2018-08-25T15:01:50.425Z,581
2018-08-25T15:02:57.648Z,586
2018-08-25T15:04:04.897Z,580
2018-08-25T15:05:12.122Z,587
2018-08-25T15:06:19.572Z,566
2018-08-25T15:07:26.796Z,571
2018-08-25T15:08:33.759Z,573
2018-08-25T15:09:40.716Z,577
2018-08-25T15:10:47.954Z,579
2018-08-25T15:11:55.188Z,579
2018-08-25T15:13:02.430Z,580
2018-08-25T15:14:09.646Z,585
2018-08-25T15:15:16.601Z,584
2018-08-25T15:16:23.856Z,566
2018-08-25T15:17:31.094Z,573
2018-08-25T15:18:38.421Z,573
2018-08-25T15:19:45.686Z,571
2018-08-25T15:20:52.635Z,576
2018-08-25T15:21:59.601Z,576
2018-08-25T15:23:06.853Z,571
2018-08-25T15:24:14.293Z,570
2018-08-25T15:25:21.537Z,573
2018-08-25T15:26:28.786Z,572